sensor_id;sensor_type;location;lat;lon;timestamp;P1;durP1;ratioP1;P2;durP2;ratioP2
29984;SDS011;17387;42.690;23.328;2022-12-07T00:01:04;51.88;;;25.88;;
29984;SDS011;17387;42.690;23.328;2022-12-07T00:03:34;54.22;;;26.15;;
29984;SDS011;17387;42.690;23.328;2022-12-07T00:06:00;49.78;;;25.77;;
29984;SDS011;17387;42.690;23.328;2022-12-07T00:08:27;50.08;;;26.15;;
29984;SDS011;17387;42.690;23.328;2022-12-07T00:10:53;51.83;;;25.15;;
29984;SDS011;17387;42.690;23.328;2022-12-07T00:13:19;60.00;;;28.38;;
29984;SDS011;17387;42.690;23.328;2022-12-07T00:15:45;48.03;;;25.08;;
29984;SDS011;17387;42.690;23.328;2022-12-07T00:18:10;47.13;;;24.25;;
29984;SDS011;17387;42.690;23.328;2022-12-07T00:20:36;44.20;;;22.95;;
29984;SDS011;17387;42.690;23.328;2022-12-07T00:23:01;50.42;;;25.77;;
29984;SDS011;17387;42.690;23.328;2022-12-07T00:25:27;47.25;;;25.02;;
29984;SDS011;17387;42.690;23.328;2022-12-07T00:27:52;51.13;;;25.85;;
29984;SDS011;17387;42.690;23.328;2022-12-07T00:30:20;49.53;;;24.73;;
29984;SDS011;17387;42.690;23.328;2022-12-07T00:32:46;51.80;;;24.45;;
29984;SDS011;17387;42.690;23.328;2022-12-07T00:35:11;45.67;;;23.25;;
29984;SDS011;17387;42.690;23.328;2022-12-07T00:37:37;48.17;;;24.27;;
29984;SDS011;17387;42.690;23.328;2022-12-07T00:40:02;46.47;;;23.23;;
29984;SDS011;17387;42.690;23.328;2022-12-07T00:42:28;45.75;;;24.25;;
29984;SDS011;17387;42.690;23.328;2022-12-07T00:44:53;48.55;;;22.80;;
29984;SDS011;17387;42.690;23.328;2022-12-07T00:47:19;45.63;;;22.75;;
29984;SDS011;17387;42.690;23.328;2022-12-07T00:49:44;46.83;;;22.92;;
29984;SDS011;17387;42.690;23.328;2022-12-07T00:52:09;44.67;;;23.00;;
29984;SDS011;17387;42.690;23.328;2022-12-07T00:54:35;47.45;;;23.67;;
29984;SDS011;17387;42.690;23.328;2022-12-07T00:57:00;44.70;;;24.15;;
29984;SDS011;17387;42.690;23.328;2022-12-07T00:59:25;45.08;;;22.63;;
29984;SDS011;17387;42.690;23.328;2022-12-07T01:01:51;47.63;;;23.73;;
29984;SDS011;17387;42.690;23.328;2022-12-07T01:04:16;44.95;;;23.30;;
29984;SDS011;17387;42.690;23.328;2022-12-07T01:06:42;45.30;;;23.83;;
29984;SDS011;17387;42.690;23.328;2022-12-07T01:09:07;42.92;;;23.00;;
29984;SDS011;17387;42.690;23.328;2022-12-07T01:11:32;43.83;;;23.10;;
29984;SDS011;17387;42.690;23.328;2022-12-07T01:13:58;43.33;;;23.48;;
29984;SDS011;17387;42.690;23.328;2022-12-07T01:16:25;45.92;;;23.58;;
29984;SDS011;17387;42.690;23.328;2022-12-07T01:18:54;40.15;;;22.85;;
29984;SDS011;17387;42.690;23.328;2022-12-07T01:21:22;40.53;;;22.33;;
29984;SDS011;17387;42.690;23.328;2022-12-07T01:23:52;40.75;;;21.45;;
29984;SDS011;17387;42.690;23.328;2022-12-07T01:26:19;44.47;;;21.67;;
29984;SDS011;17387;42.690;23.328;2022-12-07T01:28:48;44.93;;;21.73;;
29984;SDS011;17387;42.690;23.328;2022-12-07T01:31:18;46.30;;;22.88;;
29984;SDS011;17387;42.690;23.328;2022-12-07T01:33:48;38.42;;;22.17;;
29984;SDS011;17387;42.690;23.328;2022-12-07T01:36:17;47.47;;;22.20;;
29984;SDS011;17387;42.690;23.328;2022-12-07T01:38:53;44.88;;;22.60;;
29984;SDS011;17387;42.690;23.328;2022-12-07T01:41:21;42.45;;;22.88;;
29984;SDS011;17387;42.690;23.328;2022-12-07T01:46:32;42.15;;;22.10;;
29984;SDS011;17387;42.690;23.328;2022-12-07T01:48:57;40.30;;;22.35;;
29984;SDS011;17387;42.690;23.328;2022-12-07T01:51:23;41.10;;;22.42;;
29984;SDS011;17387;42.690;23.328;2022-12-07T01:53:49;39.22;;;22.40;;
29984;SDS011;17387;42.690;23.328;2022-12-07T01:56:17;46.78;;;24.42;;
29984;SDS011;17387;42.690;23.328;2022-12-07T01:58:45;43.38;;;23.77;;
29984;SDS011;17387;42.690;23.328;2022-12-07T02:01:11;44.15;;;22.85;;
29984;SDS011;17387;42.690;23.328;2022-12-07T02:03:38;43.38;;;23.15;;
29984;SDS011;17387;42.690;23.328;2022-12-07T02:06:06;45.10;;;23.00;;
29984;SDS011;17387;42.690;23.328;2022-12-07T02:08:33;48.58;;;22.60;;
29984;SDS011;17387;42.690;23.328;2022-12-07T02:11:00;43.20;;;23.25;;
29984;SDS011;17387;42.690;23.328;2022-12-07T02:13:28;47.75;;;23.40;;
29984;SDS011;17387;42.690;23.328;2022-12-07T02:16:03;43.28;;;22.60;;
29984;SDS011;17387;42.690;23.328;2022-12-07T02:40:20;47.97;;;25.10;;
29984;SDS011;17387;42.690;23.328;2022-12-07T02:42:51;53.50;;;25.35;;
29984;SDS011;17387;42.690;23.328;2022-12-07T02:45:23;45.83;;;24.58;;
29984;SDS011;17387;42.690;23.328;2022-12-07T02:47:53;48.08;;;24.88;;
29984;SDS011;17387;42.690;23.328;2022-12-07T02:50:23;43.70;;;24.45;;
29984;SDS011;17387;42.690;23.328;2022-12-07T02:52:49;52.00;;;25.65;;
29984;SDS011;17387;42.690;23.328;2022-12-07T02:55:15;47.17;;;24.40;;
29984;SDS011;17387;42.690;23.328;2022-12-07T02:57:55;50.75;;;24.77;;
29984;SDS011;17387;42.690;23.328;2022-12-07T03:00:24;46.40;;;24.23;;
29984;SDS011;17387;42.690;23.328;2022-12-07T03:11:13;50.35;;;24.83;;
29984;SDS011;17387;42.690;23.328;2022-12-07T03:13:49;50.40;;;25.85;;
29984;SDS011;17387;42.690;23.328;2022-12-07T03:16:27;46.38;;;23.75;;
29984;SDS011;17387;42.690;23.328;2022-12-07T03:18:59;47.90;;;24.15;;
29984;SDS011;17387;42.690;23.328;2022-12-07T03:21:33;52.38;;;23.63;;
29984;SDS011;17387;42.690;23.328;2022-12-07T03:24:04;42.03;;;24.30;;
29984;SDS011;17387;42.690;23.328;2022-12-07T03:26:34;48.63;;;23.50;;
29984;SDS011;17387;42.690;23.328;2022-12-07T03:29:07;51.05;;;25.67;;
29984;SDS011;17387;42.690;23.328;2022-12-07T03:31:40;49.67;;;24.58;;
29984;SDS011;17387;42.690;23.328;2022-12-07T03:34:14;49.05;;;23.92;;
29984;SDS011;17387;42.690;23.328;2022-12-07T03:36:47;45.97;;;24.60;;
29984;SDS011;17387;42.690;23.328;2022-12-07T03:41:42;46.10;;;23.90;;
29984;SDS011;17387;42.690;23.328;2022-12-07T03:44:08;45.78;;;25.35;;
29984;SDS011;17387;42.690;23.328;2022-12-07T03:49:13;52.45;;;26.00;;
29984;SDS011;17387;42.690;23.328;2022-12-07T03:52:02;50.85;;;26.02;;
29984;SDS011;17387;42.690;23.328;2022-12-07T03:57:04;52.00;;;26.58;;
29984;SDS011;17387;42.690;23.328;2022-12-07T03:59:31;54.13;;;26.75;;
29984;SDS011;17387;42.690;23.328;2022-12-07T04:02:01;53.97;;;26.83;;
29984;SDS011;17387;42.690;23.328;2022-12-07T04:04:29;50.90;;;26.95;;
29984;SDS011;17387;42.690;23.328;2022-12-07T04:06:54;51.60;;;26.85;;
29984;SDS011;17387;42.690;23.328;2022-12-07T04:09:19;54.90;;;28.35;;
29984;SDS011;17387;42.690;23.328;2022-12-07T04:11:45;56.25;;;27.77;;
29984;SDS011;17387;42.690;23.328;2022-12-07T04:14:11;51.95;;;27.50;;
29984;SDS011;17387;42.690;23.328;2022-12-07T04:19:14;57.53;;;27.77;;
29984;SDS011;17387;42.690;23.328;2022-12-07T04:21:41;54.80;;;27.27;;
29984;SDS011;17387;42.690;23.328;2022-12-07T04:24:07;57.53;;;27.45;;
29984;SDS011;17387;42.690;23.328;2022-12-07T04:26:32;56.80;;;28.38;;
29984;SDS011;17387;42.690;23.328;2022-12-07T04:28:58;56.65;;;28.33;;
29984;SDS011;17387;42.690;23.328;2022-12-07T04:31:23;58.42;;;27.15;;
29984;SDS011;17387;42.690;23.328;2022-12-07T04:33:49;62.83;;;28.73;;
29984;SDS011;17387;42.690;23.328;2022-12-07T04:36:14;54.60;;;27.52;;
29984;SDS011;17387;42.690;23.328;2022-12-07T04:38:40;55.58;;;27.55;;
29984;SDS011;17387;42.690;23.328;2022-12-07T04:41:06;58.55;;;28.83;;
29984;SDS011;17387;42.690;23.328;2022-12-07T04:43:32;62.25;;;28.08;;
29984;SDS011;17387;42.690;23.328;2022-12-07T04:45:58;54.00;;;28.30;;
29984;SDS011;17387;42.690;23.328;2022-12-07T04:48:24;54.55;;;27.75;;
29984;SDS011;17387;42.690;23.328;2022-12-07T04:50:49;59.40;;;28.90;;
29984;SDS011;17387;42.690;23.328;2022-12-07T04:53:14;63.00;;;28.45;;
29984;SDS011;17387;42.690;23.328;2022-12-07T04:55:40;58.13;;;28.95;;
29984;SDS011;17387;42.690;23.328;2022-12-07T04:58:05;57.80;;;28.02;;
29984;SDS011;17387;42.690;23.328;2022-12-07T05:00:31;61.33;;;28.50;;
29984;SDS011;17387;42.690;23.328;2022-12-07T05:02:56;61.55;;;27.77;;
29984;SDS011;17387;42.690;23.328;2022-12-07T05:05:22;57.00;;;28.40;;
29984;SDS011;17387;42.690;23.328;2022-12-07T05:07:47;60.60;;;29.02;;
29984;SDS011;17387;42.690;23.328;2022-12-07T05:10:12;59.90;;;28.73;;
29984;SDS011;17387;42.690;23.328;2022-12-07T05:12:38;61.92;;;28.88;;
29984;SDS011;17387;42.690;23.328;2022-12-07T05:15:04;58.95;;;28.38;;
29984;SDS011;17387;42.690;23.328;2022-12-07T05:17:29;62.17;;;29.13;;
29984;SDS011;17387;42.690;23.328;2022-12-07T05:19:55;64.80;;;29.13;;
29984;SDS011;17387;42.690;23.328;2022-12-07T05:22:20;61.67;;;28.25;;
29984;SDS011;17387;42.690;23.328;2022-12-07T05:24:46;60.00;;;28.20;;
29984;SDS011;17387;42.690;23.328;2022-12-07T05:27:11;59.38;;;29.13;;
29984;SDS011;17387;42.690;23.328;2022-12-07T05:29:37;60.03;;;30.13;;
29984;SDS011;17387;42.690;23.328;2022-12-07T05:32:03;67.05;;;30.23;;
29984;SDS011;17387;42.690;23.328;2022-12-07T05:34:29;68.38;;;30.20;;
29984;SDS011;17387;42.690;23.328;2022-12-07T05:36:56;60.47;;;29.48;;
29984;SDS011;17387;42.690;23.328;2022-12-07T05:39:21;59.15;;;28.60;;
29984;SDS011;17387;42.690;23.328;2022-12-07T05:41:46;60.45;;;29.10;;
29984;SDS011;17387;42.690;23.328;2022-12-07T05:44:50;65.00;;;29.58;;
29984;SDS011;17387;42.690;23.328;2022-12-07T05:47:16;67.47;;;30.05;;
29984;SDS011;17387;42.690;23.328;2022-12-07T05:49:42;66.68;;;29.52;;
29984;SDS011;17387;42.690;23.328;2022-12-07T05:52:07;71.63;;;30.27;;
29984;SDS011;17387;42.690;23.328;2022-12-07T05:54:33;63.97;;;31.08;;
29984;SDS011;17387;42.690;23.328;2022-12-07T05:56:58;65.07;;;30.15;;
29984;SDS011;17387;42.690;23.328;2022-12-07T05:59:24;61.05;;;30.27;;
29984;SDS011;17387;42.690;23.328;2022-12-07T06:01:55;62.90;;;30.27;;
29984;SDS011;17387;42.690;23.328;2022-12-07T06:04:23;69.63;;;31.80;;
29984;SDS011;17387;42.690;23.328;2022-12-07T06:06:50;64.43;;;28.88;;
29984;SDS011;17387;42.690;23.328;2022-12-07T06:09:16;64.70;;;29.92;;
29984;SDS011;17387;42.690;23.328;2022-12-07T06:11:43;64.50;;;32.63;;
29984;SDS011;17387;42.690;23.328;2022-12-07T06:14:27;65.70;;;29.85;;
29984;SDS011;17387;42.690;23.328;2022-12-07T06:16:52;70.85;;;30.65;;
29984;SDS011;17387;42.690;23.328;2022-12-07T06:19:18;65.68;;;29.40;;
29984;SDS011;17387;42.690;23.328;2022-12-07T06:21:43;72.47;;;33.10;;
29984;SDS011;17387;42.690;23.328;2022-12-07T06:24:12;62.35;;;30.05;;
29984;SDS011;17387;42.690;23.328;2022-12-07T06:26:39;64.72;;;30.73;;
29984;SDS011;17387;42.690;23.328;2022-12-07T06:29:04;67.32;;;32.30;;
29984;SDS011;17387;42.690;23.328;2022-12-07T06:31:30;61.67;;;30.88;;
29984;SDS011;17387;42.690;23.328;2022-12-07T06:34:06;69.93;;;31.30;;
29984;SDS011;17387;42.690;23.328;2022-12-07T06:36:34;63.30;;;32.22;;
29984;SDS011;17387;42.690;23.328;2022-12-07T06:39:00;67.78;;;32.38;;
29984;SDS011;17387;42.690;23.328;2022-12-07T06:41:26;65.80;;;32.45;;
29984;SDS011;17387;42.690;23.328;2022-12-07T06:43:52;73.25;;;32.55;;
29984;SDS011;17387;42.690;23.328;2022-12-07T06:46:18;65.32;;;31.05;;
29984;SDS011;17387;42.690;23.328;2022-12-07T06:48:43;63.20;;;31.52;;
29984;SDS011;17387;42.690;23.328;2022-12-07T06:51:09;61.03;;;30.75;;
29984;SDS011;17387;42.690;23.328;2022-12-07T06:53:35;67.05;;;30.85;;
29984;SDS011;17387;42.690;23.328;2022-12-07T06:56:01;69.18;;;33.58;;
29984;SDS011;17387;42.690;23.328;2022-12-07T06:58:27;70.28;;;31.90;;
29984;SDS011;17387;42.690;23.328;2022-12-07T07:00:53;64.65;;;30.08;;
29984;SDS011;17387;42.690;23.328;2022-12-07T07:03:18;64.93;;;30.48;;
29984;SDS011;17387;42.690;23.328;2022-12-07T07:05:45;63.88;;;30.30;;
29984;SDS011;17387;42.690;23.328;2022-12-07T07:08:11;71.15;;;35.47;;
29984;SDS011;17387;42.690;23.328;2022-12-07T07:10:37;65.35;;;31.45;;
29984;SDS011;17387;42.690;23.328;2022-12-07T07:13:03;54.55;;;28.75;;
29984;SDS011;17387;42.690;23.328;2022-12-07T07:15:29;61.35;;;32.03;;
29984;SDS011;17387;42.690;23.328;2022-12-07T07:17:55;64.97;;;30.15;;
29984;SDS011;17387;42.690;23.328;2022-12-07T07:20:21;55.75;;;27.75;;
29984;SDS011;17387;42.690;23.328;2022-12-07T07:22:47;55.78;;;28.83;;
29984;SDS011;17387;42.690;23.328;2022-12-07T07:25:13;54.65;;;29.13;;
29984;SDS011;17387;42.690;23.328;2022-12-07T07:27:39;61.10;;;30.00;;
29984;SDS011;17387;42.690;23.328;2022-12-07T07:30:05;53.55;;;27.42;;
29984;SDS011;17387;42.690;23.328;2022-12-07T07:32:31;63.22;;;33.63;;
29984;SDS011;17387;42.690;23.328;2022-12-07T07:34:57;60.08;;;32.40;;
29984;SDS011;17387;42.690;23.328;2022-12-07T07:37:22;70.45;;;34.08;;
29984;SDS011;17387;42.690;23.328;2022-12-07T07:39:48;112.57;;;49.15;;
29984;SDS011;17387;42.690;23.328;2022-12-07T07:42:14;78.07;;;37.65;;
29984;SDS011;17387;42.690;23.328;2022-12-07T07:44:39;73.70;;;36.95;;
29984;SDS011;17387;42.690;23.328;2022-12-07T07:47:04;73.03;;;36.78;;
29984;SDS011;17387;42.690;23.328;2022-12-07T07:49:30;83.90;;;40.20;;
29984;SDS011;17387;42.690;23.328;2022-12-07T07:51:55;73.00;;;38.42;;
29984;SDS011;17387;42.690;23.328;2022-12-07T07:54:21;77.53;;;40.95;;
29984;SDS011;17387;42.690;23.328;2022-12-07T07:56:46;76.85;;;39.40;;
29984;SDS011;17387;42.690;23.328;2022-12-07T07:59:12;79.82;;;42.58;;
29984;SDS011;17387;42.690;23.328;2022-12-07T08:01:37;78.53;;;40.67;;
29984;SDS011;17387;42.690;23.328;2022-12-07T08:04:02;86.40;;;42.83;;
29984;SDS011;17387;42.690;23.328;2022-12-07T08:06:28;75.60;;;42.05;;
29984;SDS011;17387;42.690;23.328;2022-12-07T08:08:53;77.50;;;41.83;;
29984;SDS011;17387;42.690;23.328;2022-12-07T08:11:19;94.47;;;45.72;;
29984;SDS011;17387;42.690;23.328;2022-12-07T08:13:47;84.32;;;45.30;;
29984;SDS011;17387;42.690;23.328;2022-12-07T08:16:12;103.00;;;53.95;;
29984;SDS011;17387;42.690;23.328;2022-12-07T08:18:39;75.30;;;40.40;;
29984;SDS011;17387;42.690;23.328;2022-12-07T08:21:06;74.65;;;43.10;;
29984;SDS011;17387;42.690;23.328;2022-12-07T08:23:32;77.75;;;41.05;;
29984;SDS011;17387;42.690;23.328;2022-12-07T08:26:06;76.55;;;39.58;;
29984;SDS011;17387;42.690;23.328;2022-12-07T08:28:34;73.60;;;41.08;;
29984;SDS011;17387;42.690;23.328;2022-12-07T08:31:00;74.05;;;39.80;;
29984;SDS011;17387;42.690;23.328;2022-12-07T08:33:26;78.10;;;41.35;;
29984;SDS011;17387;42.690;23.328;2022-12-07T08:35:52;77.10;;;40.85;;
29984;SDS011;17387;42.690;23.328;2022-12-07T08:38:17;76.70;;;41.50;;
29984;SDS011;17387;42.690;23.328;2022-12-07T08:40:43;75.15;;;40.78;;
29984;SDS011;17387;42.690;23.328;2022-12-07T08:43:08;80.97;;;41.83;;
29984;SDS011;17387;42.690;23.328;2022-12-07T08:45:34;76.90;;;41.00;;
29984;SDS011;17387;42.690;23.328;2022-12-07T08:48:08;87.45;;;44.65;;
29984;SDS011;17387;42.690;23.328;2022-12-07T08:50:38;90.07;;;42.92;;
29984;SDS011;17387;42.690;23.328;2022-12-07T08:53:04;74.97;;;38.88;;
29984;SDS011;17387;42.690;23.328;2022-12-07T08:55:31;83.63;;;40.70;;
29984;SDS011;17387;42.690;23.328;2022-12-07T08:57:59;86.03;;;41.63;;
29984;SDS011;17387;42.690;23.328;2022-12-07T09:00:26;78.45;;;40.25;;
29984;SDS011;17387;42.690;23.328;2022-12-07T09:02:51;244.38;;;148.65;;
29984;SDS011;17387;42.690;23.328;2022-12-07T09:05:18;84.85;;;44.60;;
29984;SDS011;17387;42.690;23.328;2022-12-07T09:07:45;86.88;;;43.03;;
29984;SDS011;17387;42.690;23.328;2022-12-07T09:10:13;76.40;;;40.67;;
29984;SDS011;17387;42.690;23.328;2022-12-07T09:12:38;66.25;;;35.85;;
29984;SDS011;17387;42.690;23.328;2022-12-07T09:15:05;63.47;;;37.65;;
29984;SDS011;17387;42.690;23.328;2022-12-07T09:17:33;65.47;;;34.17;;
29984;SDS011;17387;42.690;23.328;2022-12-07T09:20:00;70.53;;;36.13;;
29984;SDS011;17387;42.690;23.328;2022-12-07T09:22:29;64.07;;;33.38;;
29984;SDS011;17387;42.690;23.328;2022-12-07T09:24:59;68.03;;;34.17;;
29984;SDS011;17387;42.690;23.328;2022-12-07T09:27:25;63.65;;;32.05;;
29984;SDS011;17387;42.690;23.328;2022-12-07T09:29:51;67.05;;;34.67;;
29984;SDS011;17387;42.690;23.328;2022-12-07T09:32:17;70.78;;;32.08;;
29984;SDS011;17387;42.690;23.328;2022-12-07T09:34:42;70.78;;;32.55;;
29984;SDS011;17387;42.690;23.328;2022-12-07T09:37:08;63.42;;;32.88;;
29984;SDS011;17387;42.690;23.328;2022-12-07T09:39:33;63.47;;;34.33;;
29984;SDS011;17387;42.690;23.328;2022-12-07T09:41:59;72.57;;;35.33;;
29984;SDS011;17387;42.690;23.328;2022-12-07T09:44:28;60.42;;;32.28;;
29984;SDS011;17387;42.690;23.328;2022-12-07T09:46:54;64.70;;;33.08;;
29984;SDS011;17387;42.690;23.328;2022-12-07T09:49:22;72.55;;;37.25;;
29984;SDS011;17387;42.690;23.328;2022-12-07T09:54:53;76.65;;;39.45;;
29984;SDS011;17387;42.690;23.328;2022-12-07T09:57:20;73.50;;;36.80;;
29984;SDS011;17387;42.690;23.328;2022-12-07T10:00:02;79.57;;;39.00;;
29984;SDS011;17387;42.690;23.328;2022-12-07T10:02:50;67.93;;;36.22;;
29984;SDS011;17387;42.690;23.328;2022-12-07T10:05:20;73.10;;;39.53;;
29984;SDS011;17387;42.690;23.328;2022-12-07T10:07:52;68.88;;;38.15;;
29984;SDS011;17387;42.690;23.328;2022-12-07T10:10:30;67.82;;;39.63;;
29984;SDS011;17387;42.690;23.328;2022-12-07T10:18:27;70.30;;;37.88;;
29984;SDS011;17387;42.690;23.328;2022-12-07T10:23:37;87.90;;;45.30;;
29984;SDS011;17387;42.690;23.328;2022-12-07T10:31:37;74.65;;;40.38;;
29984;SDS011;17387;42.690;23.328;2022-12-07T10:34:12;72.78;;;37.95;;
29984;SDS011;17387;42.690;23.328;2022-12-07T10:42:27;75.80;;;38.00;;
29984;SDS011;17387;42.690;23.328;2022-12-07T10:47:35;67.65;;;37.03;;
29984;SDS011;17387;42.690;23.328;2022-12-07T11:01:13;59.45;;;31.33;;
29984;SDS011;17387;42.690;23.328;2022-12-07T11:10:08;77.38;;;40.15;;
29984;SDS011;17387;42.690;23.328;2022-12-07T11:16:02;82.85;;;42.10;;
29984;SDS011;17387;42.690;23.328;2022-12-07T11:18:41;63.72;;;30.40;;
29984;SDS011;17387;42.690;23.328;2022-12-07T11:21:30;52.20;;;28.50;;
29984;SDS011;17387;42.690;23.328;2022-12-07T11:27:21;56.30;;;31.40;;
29984;SDS011;17387;42.690;23.328;2022-12-07T11:37:49;48.58;;;26.08;;
29984;SDS011;17387;42.690;23.328;2022-12-07T11:40:22;46.97;;;25.92;;
29984;SDS011;17387;42.690;23.328;2022-12-07T11:43:27;48.72;;;26.52;;
29984;SDS011;17387;42.690;23.328;2022-12-07T12:06:33;52.17;;;25.08;;
29984;SDS011;17387;42.690;23.328;2022-12-07T12:22:40;57.78;;;33.78;;
29984;SDS011;17387;42.690;23.328;2022-12-07T12:25:19;51.05;;;29.02;;
29984;SDS011;17387;42.690;23.328;2022-12-07T12:27:46;43.08;;;24.25;;
29984;SDS011;17387;42.690;23.328;2022-12-07T12:30:28;44.83;;;26.55;;
29984;SDS011;17387;42.690;23.328;2022-12-07T12:35:30;58.63;;;29.67;;
29984;SDS011;17387;42.690;23.328;2022-12-07T12:40:54;42.47;;;24.00;;
29984;SDS011;17387;42.690;23.328;2022-12-07T13:02:30;44.78;;;24.70;;
29984;SDS011;17387;42.690;23.328;2022-12-07T13:12:57;45.25;;;25.15;;
29984;SDS011;17387;42.690;23.328;2022-12-07T13:15:36;47.78;;;25.38;;
29984;SDS011;17387;42.690;23.328;2022-12-07T13:20:59;43.05;;;25.08;;
29984;SDS011;17387;42.690;23.328;2022-12-07T13:23:33;45.63;;;24.70;;
29984;SDS011;17387;42.690;23.328;2022-12-07T13:28:45;41.70;;;23.08;;
29984;SDS011;17387;42.690;23.328;2022-12-07T13:33:52;47.50;;;26.13;;
29984;SDS011;17387;42.690;23.328;2022-12-07T13:36:22;50.35;;;28.02;;
29984;SDS011;17387;42.690;23.328;2022-12-07T13:38:50;47.95;;;24.55;;
29984;SDS011;17387;42.690;23.328;2022-12-07T13:41:21;51.00;;;28.38;;
29984;SDS011;17387;42.690;23.328;2022-12-07T13:43:49;50.08;;;27.38;;
29984;SDS011;17387;42.690;23.328;2022-12-07T13:46:26;45.15;;;25.48;;
29984;SDS011;17387;42.690;23.328;2022-12-07T13:49:15;43.00;;;23.73;;
29984;SDS011;17387;42.690;23.328;2022-12-07T13:51:43;48.95;;;26.13;;
29984;SDS011;17387;42.690;23.328;2022-12-07T13:54:09;66.78;;;32.70;;
29984;SDS011;17387;42.690;23.328;2022-12-07T13:56:36;37.53;;;20.92;;
29984;SDS011;17387;42.690;23.328;2022-12-07T13:59:03;70.35;;;39.35;;
29984;SDS011;17387;42.690;23.328;2022-12-07T14:01:37;48.28;;;27.70;;
29984;SDS011;17387;42.690;23.328;2022-12-07T14:06:50;32.88;;;20.10;;
29984;SDS011;17387;42.690;23.328;2022-12-07T14:09:18;32.63;;;19.25;;
29984;SDS011;17387;42.690;23.328;2022-12-07T14:11:47;31.75;;;18.60;;
29984;SDS011;17387;42.690;23.328;2022-12-07T14:14:16;43.78;;;26.63;;
29984;SDS011;17387;42.690;23.328;2022-12-07T14:16:54;47.25;;;26.80;;
29984;SDS011;17387;42.690;23.328;2022-12-07T14:19:41;47.30;;;30.08;;
29984;SDS011;17387;42.690;23.328;2022-12-07T14:27:36;51.45;;;28.65;;
29984;SDS011;17387;42.690;23.328;2022-12-07T14:30:02;40.45;;;19.98;;
29984;SDS011;17387;42.690;23.328;2022-12-07T14:32:29;51.00;;;26.77;;
29984;SDS011;17387;42.690;23.328;2022-12-07T14:37:22;41.22;;;23.77;;
29984;SDS011;17387;42.690;23.328;2022-12-07T14:39:48;34.30;;;19.17;;
29984;SDS011;17387;42.690;23.328;2022-12-07T14:42:13;42.97;;;23.00;;
29984;SDS011;17387;42.690;23.328;2022-12-07T14:44:39;43.30;;;21.50;;
29984;SDS011;17387;42.690;23.328;2022-12-07T14:47:04;37.33;;;20.25;;
29984;SDS011;17387;42.690;23.328;2022-12-07T14:49:30;39.95;;;20.13;;
29984;SDS011;17387;42.690;23.328;2022-12-07T14:51:55;43.15;;;20.38;;
29984;SDS011;17387;42.690;23.328;2022-12-07T14:54:20;48.72;;;25.20;;
29984;SDS011;17387;42.690;23.328;2022-12-07T14:56:51;47.30;;;23.42;;
29984;SDS011;17387;42.690;23.328;2022-12-07T14:59:17;52.53;;;22.92;;
29984;SDS011;17387;42.690;23.328;2022-12-07T15:01:43;43.58;;;24.88;;
29984;SDS011;17387;42.690;23.328;2022-12-07T15:04:09;48.28;;;27.90;;
29984;SDS011;17387;42.690;23.328;2022-12-07T15:06:34;39.38;;;19.45;;
29984;SDS011;17387;42.690;23.328;2022-12-07T15:09:00;37.33;;;19.73;;
29984;SDS011;17387;42.690;23.328;2022-12-07T15:11:25;50.58;;;27.77;;
29984;SDS011;17387;42.690;23.328;2022-12-07T15:13:51;40.35;;;22.55;;
29984;SDS011;17387;42.690;23.328;2022-12-07T15:16:37;49.45;;;28.50;;
29984;SDS011;17387;42.690;23.328;2022-12-07T15:19:20;41.92;;;22.42;;
29984;SDS011;17387;42.690;23.328;2022-12-07T15:21:50;40.88;;;20.63;;
29984;SDS011;17387;42.690;23.328;2022-12-07T15:24:16;49.85;;;26.65;;
29984;SDS011;17387;42.690;23.328;2022-12-07T15:26:42;45.30;;;25.05;;
29984;SDS011;17387;42.690;23.328;2022-12-07T15:29:08;53.38;;;27.08;;
29984;SDS011;17387;42.690;23.328;2022-12-07T15:31:34;49.42;;;26.50;;
29984;SDS011;17387;42.690;23.328;2022-12-07T15:34:01;53.42;;;27.45;;
29984;SDS011;17387;42.690;23.328;2022-12-07T15:36:28;59.30;;;29.40;;
29984;SDS011;17387;42.690;23.328;2022-12-07T15:38:55;62.65;;;30.27;;
29984;SDS011;17387;42.690;23.328;2022-12-07T15:41:21;58.95;;;27.70;;
29984;SDS011;17387;42.690;23.328;2022-12-07T15:43:47;66.50;;;30.48;;
29984;SDS011;17387;42.690;23.328;2022-12-07T15:46:40;56.33;;;28.40;;
29984;SDS011;17387;42.690;23.328;2022-12-07T15:49:14;57.33;;;28.42;;
29984;SDS011;17387;42.690;23.328;2022-12-07T15:51:41;52.50;;;27.00;;
29984;SDS011;17387;42.690;23.328;2022-12-07T15:54:21;59.92;;;27.48;;
29984;SDS011;17387;42.690;23.328;2022-12-07T15:56:48;66.18;;;29.17;;
29984;SDS011;17387;42.690;23.328;2022-12-07T15:59:14;57.72;;;28.20;;
29984;SDS011;17387;42.690;23.328;2022-12-07T16:01:40;83.75;;;40.30;;
29984;SDS011;17387;42.690;23.328;2022-12-07T16:04:06;70.05;;;30.25;;
29984;SDS011;17387;42.690;23.328;2022-12-07T16:06:31;63.63;;;27.95;;
29984;SDS011;17387;42.690;23.328;2022-12-07T16:08:57;75.72;;;29.00;;
29984;SDS011;17387;42.690;23.328;2022-12-07T16:11:22;85.22;;;40.30;;
29984;SDS011;17387;42.690;23.328;2022-12-07T16:13:48;90.47;;;42.70;;
29984;SDS011;17387;42.690;23.328;2022-12-07T16:16:14;93.53;;;45.92;;
29984;SDS011;17387;42.690;23.328;2022-12-07T16:18:41;91.38;;;48.80;;
29984;SDS011;17387;42.690;23.328;2022-12-07T16:21:08;82.07;;;43.45;;
29984;SDS011;17387;42.690;23.328;2022-12-07T16:23:34;95.10;;;45.75;;
29984;SDS011;17387;42.690;23.328;2022-12-07T16:26:03;74.25;;;38.13;;
29984;SDS011;17387;42.690;23.328;2022-12-07T16:28:33;85.78;;;39.10;;
29984;SDS011;17387;42.690;23.328;2022-12-07T16:31:03;82.65;;;40.47;;
29984;SDS011;17387;42.690;23.328;2022-12-07T16:33:30;76.82;;;37.53;;
29984;SDS011;17387;42.690;23.328;2022-12-07T16:35:55;75.07;;;40.53;;
29984;SDS011;17387;42.690;23.328;2022-12-07T16:38:22;90.03;;;48.00;;
29984;SDS011;17387;42.690;23.328;2022-12-07T16:40:48;96.22;;;49.67;;
29984;SDS011;17387;42.690;23.328;2022-12-07T16:43:13;98.32;;;46.20;;
29984;SDS011;17387;42.690;23.328;2022-12-07T16:45:39;90.55;;;47.08;;
29984;SDS011;17387;42.690;23.328;2022-12-07T16:48:04;93.60;;;49.53;;
29984;SDS011;17387;42.690;23.328;2022-12-07T16:50:30;101.80;;;47.90;;
29984;SDS011;17387;42.690;23.328;2022-12-07T16:52:55;98.32;;;43.63;;
29984;SDS011;17387;42.690;23.328;2022-12-07T16:55:20;87.57;;;41.53;;
29984;SDS011;17387;42.690;23.328;2022-12-07T16:57:46;83.72;;;42.45;;
29984;SDS011;17387;42.690;23.328;2022-12-07T17:00:11;85.22;;;42.80;;
29984;SDS011;17387;42.690;23.328;2022-12-07T17:02:37;91.30;;;43.40;;
29984;SDS011;17387;42.690;23.328;2022-12-07T17:05:02;83.82;;;44.63;;
29984;SDS011;17387;42.690;23.328;2022-12-07T17:07:28;94.68;;;45.25;;
29984;SDS011;17387;42.690;23.328;2022-12-07T17:09:53;81.45;;;40.50;;
29984;SDS011;17387;42.690;23.328;2022-12-07T17:12:18;90.57;;;43.03;;
29984;SDS011;17387;42.690;23.328;2022-12-07T17:14:44;88.22;;;44.97;;
29984;SDS011;17387;42.690;23.328;2022-12-07T17:17:28;79.38;;;42.30;;
29984;SDS011;17387;42.690;23.328;2022-12-07T17:19:53;91.18;;;45.67;;